Time;durP1;ratioP1;P1;durP2;ratioP2;P2;SDS_P1;SDS_P2;PMS_P1;PMS_P2;Temp;Humidity;BMP_temperature;BMP_pressure;BME280_temperature;BME280_humidity;BME280_pressure;Samples;Min_cycle;Max_cycle;Signal;HPM_P1;HPM_P2
2021/05/16 00:02:23;;;;;;;3.63;2.37;;;15.10;42.80;;;;;;5122161;28;20475;-88
2021/05/16 00:04:50;;;;;;;12.47;2.50;;;15.40;41.20;;;;;;5120635;28;20475;-88
2021/05/16 00:07:17;;;;;;;6.40;2.20;;;15.30;41.60;;;;;;5119499;28;20535;-88
2021/05/16 00:09:44;;;;;;;2.90;2.13;;;15.50;40.40;;;;;;5124240;28;20934;-88
2021/05/16 00:12:12;;;;;;;6.33;2.50;;;15.40;41.80;;;;;;5124536;28;20453;-88
2021/05/16 00:14:39;;;;;;;7.43;2.30;;;15.20;41.90;;;;;;5124299;28;20477;-88
2021/05/16 00:17:07;;;;;;;4.63;2.10;;;15.20;42.70;;;;;;5122999;28;20504;-89
2021/05/16 00:19:34;;;;;;;4.77;2.30;;;15.50;42.60;;;;;;5124286;28;20475;-88
2021/05/16 00:22:01;;;;;;;6.93;2.93;;;15.40;41.40;;;;;;5122960;28;20454;-88
2021/05/16 00:24:27;;;;;;;3.80;2.40;;;15.40;41.00;;;;;;5125503;28;20462;-88
2021/05/16 00:26:54;;;;;;;4.57;2.40;;;15.10;41.80;;;;;;5130087;28;20448;-88
2021/05/16 00:29:20;;;;;;;4.83;2.60;;;14.90;42.90;;;;;;5126296;28;20540;-89
2021/05/16 00:31:47;;;;;;;5.83;2.50;;;14.50;42.50;;;;;;5123160;28;20935;-89
2021/05/16 00:34:14;;;;;;;6.30;2.80;;;14.90;42.90;;;;;;5121779;28;20613;-89
2021/05/16 00:36:41;;;;;;;4.83;2.43;;;15.20;42.00;;;;;;5121810;28;20470;-89
2021/05/16 00:39:08;;;;;;;2.90;2.30;;;15.60;40.60;;;;;;5121998;28;20514;-89
2021/05/16 00:41:35;;;;;;;4.73;2.10;;;16.00;42.40;;;;;;5122699;28;20505;-89
2021/05/16 00:44:01;;;;;;;3.40;2.40;;;16.30;41.10;;;;;;5123184;28;20510;-89
2021/05/16 00:46:27;;;;;;;10.93;3.30;;;16.50;40.60;;;;;;5123436;28;20484;-88
2021/05/16 00:48:54;;;;;;;6.13;2.50;;;16.20;39.50;;;;;;5122157;28;20516;-89
2021/05/16 00:51:22;;;;;;;3.50;2.27;;;16.30;41.10;;;;;;5122578;28;20490;-89
2021/05/16 00:53:48;;;;;;;6.40;2.40;;;16.40;39.10;;;;;;5122726;28;20542;-89
2021/05/16 00:56:15;;;;;;;2.40;2.10;;;16.50;41.10;;;;;;5122966;28;20936;-89
2021/05/16 00:58:42;;;;;;;7.43;2.90;;;16.70;40.90;;;;;;5121444;28;20486;-90
2021/05/16 01:01:09;;;;;;;3.63;2.60;;;16.70;40.20;;;;;;5121088;28;20963;-89
2021/05/16 01:03:36;;;;;;;4.93;2.50;;;16.40;39.90;;;;;;5125124;28;20527;-89
2021/05/16 01:06:02;;;;;;;7.17;2.80;;;16.40;39.40;;;;;;5133155;28;20443;-88
2021/05/16 01:08:30;;;;;;;5.67;2.83;;;16.00;39.10;;;;;;5132609;28;20566;-89
2021/05/16 01:10:56;;;;;;;3.03;2.43;;;15.60;40.70;;;;;;5131105;28;20434;-90
2021/05/16 01:13:24;;;;;;;5.63;2.50;;;15.60;41.30;;;;;;5125519;28;20539;-89
2021/05/16 01:15:51;;;;;;;5.40;2.37;;;15.40;41.60;;;;;;5122102;28;20582;-89
2021/05/16 01:18:18;;;;;;;5.80;2.30;;;15.40;40.40;;;;;;5122145;28;20477;-89
2021/05/16 01:20:47;;;;;;;5.93;2.47;;;15.50;42.60;;;;;;5119677;28;21009;-89
2021/05/16 01:23:17;;;;;;;3.10;2.50;;;15.90;41.00;;;;;;5125177;28;20469;-89
2021/05/16 01:25:45;;;;;;;7.60;2.50;;;15.90;40.60;;;;;;5137321;27;20448;-89
2021/05/16 01:28:13;;;;;;;6.87;2.80;;;16.00;42.20;;;;;;5137576;28;20478;-89
2021/05/16 01:30:40;;;;;;;5.63;2.50;;;15.90;40.40;;;;;;5120958;28;20478;-89
2021/05/16 01:33:08;;;;;;;2.53;2.27;;;15.60;41.60;;;;;;5119506;28;20509;-89
2021/05/16 01:35:35;;;;;;;6.13;2.67;;;15.80;41.90;;;;;;5120794;28;20833;-89
2021/05/16 01:38:03;;;;;;;4.37;2.70;;;16.10;40.90;;;;;;5119837;28;20454;-89
2021/05/16 01:40:31;;;;;;;3.70;2.40;;;16.40;41.30;;;;;;5119458;28;20518;-89
2021/05/16 01:42:58;;;;;;;8.33;2.60;;;16.10;41.00;;;;;;5118745;28;20451;-89
2021/05/16 01:45:27;;;;;;;4.60;2.50;;;16.30;40.30;;;;;;5123699;28;20489;-89
2021/05/16 01:47:54;;;;;;;7.33;2.20;;;16.00;40.70;;;;;;5121261;28;20473;-89
2021/05/16 01:50:23;;;;;;;6.80;2.97;;;16.20;41.10;;;;;;5119814;28;20452;-89
2021/05/16 01:52:50;;;;;;;4.27;2.60;;;16.40;41.30;;;;;;5119877;28;20511;-89
2021/05/16 01:55:18;;;;;;;7.30;2.90;;;16.50;40.60;;;;;;5119463;28;20444;-89
2021/05/16 01:57:47;;;;;;;14.33;2.83;;;16.50;40.60;;;;;;5119482;28;20447;-89
2021/05/16 02:00:17;;;;;;;5.50;2.77;;;16.60;41.10;;;;;;5119724;28;20463;-89
2021/05/16 02:02:46;;;;;;;6.60;2.87;;;16.40;41.30;;;;;;5119277;28;20553;-89
2021/05/16 02:05:13;;;;;;;4.37;2.10;;;16.60;41.50;;;;;;5122642;28;20459;-89
2021/05/16 02:07:40;;;;;;;3.67;2.50;;;16.70;41.40;;;;;;5129460;28;20536;-89
2021/05/16 02:10:08;;;;;;;4.60;3.00;;;16.80;40.90;;;;;;5119258;28;20448;-89
2021/05/16 02:12:34;;;;;;;3.93;2.67;;;16.90;39.60;;;;;;5117182;28;20501;-89
2021/05/16 02:15:01;;;;;;;5.53;2.60;;;16.30;40.40;;;;;;5117650;28;20818;-89
2021/05/16 02:17:28;;;;;;;2.70;2.43;;;16.30;40.40;;;;;;5118122;28;20934;-89
2021/05/16 02:19:55;;;;;;;7.73;2.80;;;15.90;41.80;;;;;;5117199;28;20451;-89
2021/05/16 02:22:21;;;;;;;3.90;2.83;;;15.80;40.80;;;;;;5117200;28;20437;-89
2021/05/16 02:24:48;;;;;;;3.83;2.40;;;15.90;40.80;;;;;;5116879;28;20454;-89
2021/05/16 02:27:16;;;;;;;4.70;2.97;;;16.10;41.40;;;;;;5117437;28;20453;-90
2021/05/16 02:29:43;;;;;;;6.33;3.10;;;16.30;41.10;;;;;;5118128;28;20475;-89
2021/05/16 02:32:10;;;;;;;3.07;2.60;;;16.30;40.40;;;;;;5117927;28;20523;-89
2021/05/16 02:34:37;;;;;;;4.13;2.60;;;16.40;42.10;;;;;;5117512;28;20568;-89
2021/05/16 02:37:03;;;;;;;5.10;2.33;;;16.70;40.30;;;;;;5117993;28;20447;-89
2021/05/16 02:39:30;;;;;;;2.87;2.27;;;16.70;41.30;;;;;;5117780;28;20578;-89
2021/05/16 02:41:56;;;;;;;6.50;2.43;;;16.70;39.80;;;;;;5117379;28;20468;-89
2021/05/16 02:44:23;;;;;;;4.50;2.50;;;16.60;41.40;;;;;;5116514;28;20474;-89
2021/05/16 02:46:49;;;;;;;7.43;4.13;;;16.70;40.70;;;;;;5125428;28;20467;-89
2021/05/16 02:49:17;;;;;;;7.77;3.10;;;16.90;40.20;;;;;;5124824;27;20492;-89
2021/05/16 02:51:43;;;;;;;3.00;2.70;;;16.90;40.50;;;;;;5116844;28;20513;-89
2021/05/16 02:54:10;;;;;;;3.40;2.90;;;16.90;40.70;;;;;;5116974;28;20557;-89
2021/05/16 02:56:36;;;;;;;6.40;2.97;;;16.90;40.30;;;;;;5116216;28;20487;-89
2021/05/16 02:59:03;;;;;;;4.97;2.40;;;16.80;39.90;;;;;;5116946;28;20493;-89
2021/05/16 03:01:30;;;;;;;5.53;2.50;;;16.80;41.30;;;;;;5116974;28;20495;-89
2021/05/16 03:03:56;;;;;;;5.53;2.87;;;16.80;40.50;;;;;;5119095;28;20473;-89
2021/05/16 03:06:23;;;;;;;6.07;2.27;;;16.60;40.20;;;;;;5117236;28;20439;-89
2021/05/16 03:08:50;;;;;;;6.83;2.80;;;16.00;40.90;;;;;;5116548;28;21055;-89
2021/05/16 03:11:16;;;;;;;4.83;2.57;;;16.00;41.50;;;;;;5124031;28;20425;-89
2021/05/16 03:13:42;;;;;;;10.33;3.07;;;16.20;42.00;;;;;;5131472;28;20485;-89
2021/05/16 03:16:09;;;;;;;6.73;3.00;;;16.10;41.90;;;;;;5128540;28;20445;-89
2021/05/16 03:18:35;;;;;;;3.17;2.57;;;16.10;41.80;;;;;;5131493;28;20805;-89
2021/05/16 03:21:02;;;;;;;6.17;2.93;;;16.40;41.80;;;;;;5131518;28;20454;-88
2021/05/16 03:23:29;;;;;;;3.63;2.80;;;16.00;41.80;;;;;;5131430;28;20449;-89
2021/05/16 03:26:00;;;;;;;3.30;2.40;;;16.60;41.40;;;;;;5135282;28;20485;-89
2021/05/16 03:28:26;;;;;;;5.10;2.30;;;16.60;42.50;;;;;;5134404;28;20452;-89
2021/05/16 03:30:53;;;;;;;7.07;2.40;;;16.60;42.60;;;;;;5133948;28;20548;-88
2021/05/16 03:33:20;;;;;;;8.23;2.60;;;16.60;43.10;;;;;;5154215;22;20496;-85
2021/05/16 03:35:46;;;;;;;5.00;2.40;;;16.40;42.60;;;;;;5096516;28;20425;-85
2021/05/16 03:38:13;;;;;;;6.40;2.50;;;16.50;42.80;;;;;;5104527;28;20451;-85
2021/05/16 03:40:40;;;;;;;5.40;2.53;;;16.70;42.70;;;;;;5097184;28;20445;-84
2021/05/16 03:43:07;;;;;;;7.70;2.80;;;16.60;42.30;;;;;;5104125;28;20433;-84
2021/05/16 03:45:34;;;;;;;3.80;2.53;;;16.50;43.10;;;;;;5105492;28;20648;-85
2021/05/16 03:48:01;;;;;;;5.50;2.90;;;16.50;43.10;;;;;;5102361;28;21044;-85
2021/05/16 03:50:27;;;;;;;4.80;2.73;;;16.30;43.30;;;;;;5105984;28;20442;-84
2021/05/16 03:52:54;;;;;;;6.23;2.30;;;16.30;43.60;;;;;;5103582;28;20454;-85
2021/05/16 03:55:21;;;;;;;3.43;2.30;;;16.60;43.10;;;;;;5099821;28;20474;-85
2021/05/16 03:57:49;;;;;;;4.20;2.40;;;16.70;42.80;;;;;;5102050;28;20492;-85
2021/05/16 04:00:18;;;;;;;8.60;3.70;;;16.50;43.60;;;;;;5105799;28;20431;-83
2021/05/16 04:02:44;;;;;;;5.83;2.70;;;16.50;43.60;;;;;;5113615;28;20460;-83
2021/05/16 04:05:12;;;;;;;5.73;2.60;;;16.30;44.00;;;;;;5103299;28;20447;-84
2021/05/16 04:07:38;;;;;;;5.20;2.60;;;16.10;45.00;;;;;;5107044;28;20470;-83
2021/05/16 04:10:06;;;;;;;8.50;2.70;;;16.20;44.50;;;;;;5114659;28;20450;-82
2021/05/16 04:12:33;;;;;;;5.93;2.50;;;16.00;44.50;;;;;;5117034;28;20495;-82
2021/05/16 04:15:00;;;;;;;3.37;2.27;;;16.30;44.50;;;;;;5116785;28;20472;-82
2021/05/16 04:17:26;;;;;;;5.03;2.57;;;16.30;43.60;;;;;;5116234;28;20441;-83
2021/05/16 04:19:53;;;;;;;3.10;2.50;;;16.10;43.80;;;;;;5116897;28;20934;-83
2021/05/16 04:22:19;;;;;;;7.50;2.57;;;16.00;44.90;;;;;;5118859;28;20465;-83
2021/05/16 04:24:46;;;;;;;6.07;2.40;;;16.20;44.60;;;;;;5111526;28;20467;-83
2021/05/16 04:27:12;;;;;;;4.30;2.43;;;16.40;44.40;;;;;;5109938;28;20456;-83
2021/05/16 04:29:39;;;;;;;2.63;2.30;;;16.20;44.50;;;;;;5108924;28;20510;-83
2021/05/16 04:32:07;;;;;;;3.20;2.40;;;16.20;44.30;;;;;;5108882;28;20478;-83
2021/05/16 04:34:33;;;;;;;4.80;2.17;;;16.30;44.20;;;;;;5108885;28;20487;-83
2021/05/16 04:36:59;;;;;;;3.03;2.30;;;16.40;43.90;;;;;;5109314;28;20439;-83
2021/05/16 04:39:26;;;;;;;7.53;2.93;;;16.40;44.20;;;;;;5109535;28;20442;-83
2021/05/16 04:41:52;;;;;;;4.47;2.57;;;16.00;44.60;;;;;;5110322;28;20920;-82
2021/05/16 04:44:19;;;;;;;11.83;2.70;;;15.80;45.30;;;;;;5109330;28;20492;-83
2021/05/16 04:46:45;;;;;;;2.40;2.30;;;15.90;45.70;;;;;;5109915;28;20427;-83
2021/05/16 04:49:13;;;;;;;4.40;2.40;;;16.00;45.10;;;;;;5109656;28;20849;-83
2021/05/16 04:51:39;;;;;;;2.80;2.10;;;15.70;45.60;;;;;;5109854;28;20449;-83
2021/05/16 04:54:06;;;;;;;2.13;1.97;;;15.50;46.20;;;;;;5109177;28;20496;-83
2021/05/16 04:56:32;;;;;;;2.87;2.20;;;15.80;46.40;;;;;;5111310;28;20482;-83
2021/05/16 04:58:59;;;;;;;6.97;2.37;;;16.00;45.00;;;;;;5109550;28;20442;-83
2021/05/16 05:01:26;;;;;;;2.57;2.27;;;16.00;45.20;;;;;;5109578;28;20447;-83
2021/05/16 05:03:54;;;;;;;2.37;2.00;;;15.90;46.10;;;;;;5109782;28;20522;-83
2021/05/16 05:06:22;;;;;;;2.83;1.97;;;16.20;45.30;;;;;;5109717;28;20459;-84
2021/05/16 05:08:49;;;;;;;2.53;2.20;;;16.30;44.90;;;;;;5109939;28;20486;-83
2021/05/16 05:11:16;;;;;;;7.10;2.27;;;16.10;45.10;;;;;;5109470;28;20847;-83
2021/05/16 05:13:42;;;;;;;7.80;2.30;;;15.90;44.60;;;;;;5111000;28;20824;-83
2021/05/16 05:16:09;;;;;;;3.57;2.27;;;15.30;46.90;;;;;;5109494;28;20442;-83
2021/05/16 05:18:35;;;;;;;5.30;2.30;;;15.10;46.30;;;;;;5109655;28;20435;-83
2021/05/16 05:21:01;;;;;;;5.53;2.40;;;14.80;47.60;;;;;;5111058;28;20458;-83
2021/05/16 05:23:29;;;;;;;5.30;2.50;;;15.00;47.10;;;;;;5109690;28;20555;-83
2021/05/16 05:25:56;;;;;;;2.30;2.20;;;15.40;46.80;;;;;;5109430;28;20430;-84
2021/05/16 05:28:23;;;;;;;2.33;2.13;;;15.50;45.80;;;;;;5108763;28;20501;-83
2021/05/16 05:30:50;;;;;;;3.47;2.10;;;15.90;45.50;;;;;;5109111;28;20446;-84
2021/05/16 05:33:18;;;;;;;3.83;2.07;;;16.10;45.20;;;;;;5109038;28;20428;-83
2021/05/16 05:35:45;;;;;;;3.70;2.47;;;16.20;45.00;;;;;;5109222;28;20486;-83
2021/05/16 05:38:12;;;;;;;3.73;2.40;;;16.30;44.10;;;;;;5108803;28;20440;-84
2021/05/16 05:40:39;;;;;;;4.47;2.60;;;16.50;43.50;;;;;;5109224;28;20453;-84
2021/05/16 05:43:05;;;;;;;3.97;2.40;;;16.70;43.90;;;;;;5108906;28;20826;-84
2021/05/16 05:45:33;;;;;;;2.20;2.00;;;16.60;43.10;;;;;;5108897;28;20444;-84
2021/05/16 05:48:00;;;;;;;2.67;2.00;;;16.50;44.00;;;;;;5108846;28;20496;-83
2021/05/16 05:50:26;;;;;;;2.37;2.10;;;16.40;43.10;;;;;;5108085;28;20522;-84
2021/05/16 05:52:53;;;;;;;3.70;2.47;;;16.60;43.60;;;;;;5108082;28;20485;-84
2021/05/16 05:55:20;;;;;;;3.43;2.03;;;16.70;43.80;;;;;;5107726;28;20502;-83
2021/05/16 05:57:48;;;;;;;3.10;1.93;;;17.20;43.30;;;;;;5107577;28;20473;-83
2021/05/16 06:00:15;;;;;;;4.63;2.20;;;17.60;43.80;;;;;;5108317;28;20577;-83
2021/05/16 06:02:41;;;;;;;2.50;1.90;;;17.50;42.30;;;;;;5106930;28;20446;-84
2021/05/16 06:05:09;;;;;;;3.67;2.00;;;17.20;42.00;;;;;;5107683;28;20463;-84
2021/05/16 06:07:36;;;;;;;6.03;2.10;;;17.10;41.90;;;;;;5108293;28;20456;-83
2021/05/16 06:10:03;;;;;;;3.30;2.43;;;16.90;42.30;;;;;;5108569;28;20977;-83
2021/05/16 06:12:30;;;;;;;5.13;2.00;;;17.10;43.00;;;;;;5110483;28;20427;-83
2021/05/16 06:14:59;;;;;;;4.00;1.80;;;17.30;42.60;;;;;;5109076;28;20459;-83
2021/05/16 06:17:26;;;;;;;4.40;2.10;;;17.40;45.00;;;;;;5110717;28;20450;-82
2021/05/16 06:19:52;;;;;;;4.30;2.07;;;18.90;42.10;;;;;;5110149;28;20443;-82
2021/05/16 06:22:19;;;;;;;3.00;1.90;;;19.50;38.90;;;;;;5109666;28;20449;-83
2021/05/16 06:24:46;;;;;;;6.67;1.90;;;19.60;38.10;;;;;;5109679;28;20446;-83
2021/05/16 06:27:12;;;;;;;3.63;1.93;;;19.40;38.40;;;;;;5110867;28;20467;-83
2021/05/16 06:29:39;;;;;;;2.70;1.87;;;18.50;38.40;;;;;;5109916;28;20474;-83
2021/05/16 06:32:08;;;;;;;3.33;2.00;;;17.90;39.60;;;;;;5110440;28;20449;-82
2021/05/16 06:34:35;;;;;;;2.73;2.10;;;17.40;40.70;;;;;;5112625;27;20466;-84
2021/05/16 06:37:02;;;;;;;4.37;2.20;;;16.90;41.70;;;;;;5118798;27;20430;-83
2021/05/16 06:39:29;;;;;;;4.83;2.33;;;16.50;42.20;;;;;;5119170;27;20430;-84
2021/05/16 06:41:55;;;;;;;4.17;2.23;;;16.60;41.40;;;;;;5115135;28;20435;-83
2021/05/16 06:44:22;;;;;;;2.20;1.87;;;16.00;44.10;;;;;;5112799;28;20462;-83
2021/05/16 06:46:49;;;;;;;3.57;2.07;;;15.90;43.70;;;;;;5119568;27;20419;-85
2021/05/16 06:49:16;;;;;;;5.00;2.30;;;16.20;42.70;;;;;;5119300;27;20454;-84
2021/05/16 06:51:43;;;;;;;8.80;2.13;;;16.50;42.70;;;;;;5119169;27;20445;-83
2021/05/16 06:54:09;;;;;;;3.73;2.70;;;17.20;41.60;;;;;;5117552;27;20458;-82
2021/05/16 06:56:36;;;;;;;5.67;2.33;;;17.50;40.70;;;;;;5106369;28;20457;-82
2021/05/16 06:59:03;;;;;;;2.03;1.87;;;17.60;40.00;;;;;;5104931;28;20435;-82
2021/05/16 07:01:30;;;;;;;4.90;1.87;;;17.20;42.00;;;;;;5103737;28;20442;-82
2021/05/16 07:03:57;;;;;;;5.53;2.33;;;17.70;40.80;;;;;;5105564;28;20587;-83
2021/05/16 07:06:24;;;;;;;3.70;2.30;;;17.80;40.00;;;;;;5105991;28;20815;-83
2021/05/16 07:08:51;;;;;;;6.23;2.20;;;17.70;40.40;;;;;;5107416;28;20951;-83
2021/05/16 07:11:18;;;;;;;5.47;2.30;;;17.70;39.80;;;;;;5105957;28;20450;-83
2021/05/16 07:13:45;;;;;;;5.03;2.30;;;17.60;39.20;;;;;;5113077;28;20491;-83
2021/05/16 07:16:12;;;;;;;9.60;2.13;;;17.40;39.60;;;;;;5118236;27;20446;-84
2021/05/16 07:18:38;;;;;;;3.83;2.23;;;17.30;40.20;;;;;;5117380;28;20446;-84
2021/05/16 07:21:05;;;;;;;5.33;2.13;;;17.10;41.00;;;;;;5118849;27;20468;-85
2021/05/16 07:23:32;;;;;;;4.70;2.00;;;18.20;41.20;;;;;;5118654;27;20468;-86
2021/05/16 07:25:59;;;;;;;4.17;2.10;;;19.20;36.50;;;;;;5114437;28;20463;-84
2021/05/16 07:28:26;;;;;;;4.83;2.20;;;18.70;37.20;;;;;;5108983;28;20463;-84
2021/05/16 07:30:53;;;;;;;4.37;1.87;;;19.90;37.10;;;;;;5110072;28;20430;-84
2021/05/16 07:33:19;;;;;;;4.40;2.20;;;20.90;34.70;;;;;;5118287;27;20524;-84
2021/05/16 07:35:45;;;;;;;7.13;2.10;;;20.40;34.50;;;;;;5118684;27;20399;-85
2021/05/16 07:38:12;;;;;;;9.00;2.23;;;20.50;36.20;;;;;;5118691;27;20426;-84
2021/05/16 07:40:39;;;;;;;4.50;1.93;;;20.90;33.70;;;;;;5114962;28;20450;-81
2021/05/16 07:43:07;;;;;;;4.20;1.90;;;21.30;35.00;;;;;;5113223;28;20450;-83
2021/05/16 07:45:34;;;;;;;2.50;1.67;;;22.50;33.00;;;;;;5111379;28;20775;-83
2021/05/16 07:48:00;;;;;;;3.83;2.07;;;23.50;31.60;;;;;;5103720;28;20478;-84
2021/05/16 07:50:26;;;;;;;8.40;2.13;;;23.70;30.40;;;;;;5102565;28;20446;-84
2021/05/16 07:52:53;;;;;;;2.63;1.90;;;23.90;29.10;;;;;;5099549;28;20458;-84
2021/05/16 07:55:19;;;;;;;8.53;2.77;;;23.70;29.30;;;;;;5099494;28;20516;-83
2021/05/16 07:57:48;;;;;;;5.30;2.47;;;24.40;28.50;;;;;;5099664;28;20442;-83
2021/05/16 08:00:15;;;;;;;8.63;2.63;;;25.00;28.50;;;;;;5100086;28;20481;-83
2021/05/16 08:02:43;;;;;;;11.77;2.60;;;25.30;27.70;;;;;;5101992;28;20439;-84
2021/05/16 08:05:11;;;;;;;5.00;2.77;;;25.60;28.40;;;;;;5102894;28;20459;-83
2021/05/16 08:07:42;;;;;;;4.73;2.20;;;25.50;27.80;;;;;;5103666;28;20461;-83
2021/05/16 08:10:10;;;;;;;5.67;2.57;;;23.90;27.80;;;;;;5107839;28;20431;-83
2021/05/16 08:12:37;;;;;;;15.73;2.67;;;23.10;29.10;;;;;;5107129;28;20453;-82
2021/05/16 08:15:06;;;;;;;9.97;2.80;;;22.20;30.00;;;;;;5108368;28;20462;-83
2021/05/16 08:17:33;;;;;;;10.53;2.50;;;22.00;30.80;;;;;;5106520;28;20446;-83
2021/05/16 08:20:00;;;;;;;7.33;2.67;;;20.10;34.70;;;;;;5107581;28;20435;-84
2021/05/16 08:22:26;;;;;;;10.50;3.40;;;19.40;37.00;;;;;;5106657;28;20442;-84
2021/05/16 08:24:53;;;;;;;8.47;3.90;;;19.10;38.60;;;;;;5105421;28;20466;-84
2021/05/16 08:27:19;;;;;;;7.90;2.73;;;19.70;39.10;;;;;;5108182;28;20457;-84
2021/05/16 08:29:46;;;;;;;7.10;2.90;;;20.10;39.20;;;;;;5110298;28;20469;-84
2021/05/16 08:32:14;;;;;;;10.33;2.87;;;20.00;37.50;;;;;;5112357;28;20521;-84
2021/05/16 08:34:42;;;;;;;10.90;4.50;;;20.20;37.50;;;;;;5118052;28;20459;-84
2021/05/16 08:37:10;;;;;;;5.50;2.93;;;20.20;37.40;;;;;;5121459;28;20439;-83
2021/05/16 08:39:37;;;;;;;5.73;2.30;;;21.00;38.00;;;;;;5121166;27;20449;-82
2021/05/16 08:42:04;;;;;;;9.80;2.53;;;22.00;36.20;;;;;;5120697;27;20442;-82
2021/05/16 08:44:32;;;;;;;8.03;2.60;;;23.10;33.70;;;;;;5120889;27;20470;-82
2021/05/16 08:46:59;;;;;;;9.70;2.70;;;23.20;32.70;;;;;;5120662;27;20457;-84
2021/05/16 08:49:26;;;;;;;7.77;2.50;;;23.10;32.70;;;;;;5116023;28;20563;-83
2021/05/16 08:51:53;;;;;;;9.93;2.87;;;23.10;32.10;;;;;;5112659;28;20492;-84
2021/05/16 08:54:21;;;;;;;9.23;3.40;;;22.20;31.70;;;;;;5114172;28;20477;-82
2021/05/16 08:56:47;;;;;;;9.70;2.70;;;21.80;31.40;;;;;;5114043;28;20503;-83
2021/05/16 08:59:15;;;;;;;6.87;2.77;;;21.60;31.50;;;;;;5113781;28;20438;-84
2021/05/16 09:01:48;;;;;;;6.47;2.50;;;22.50;30.90;;;;;;5113628;28;20442;-83
2021/05/16 09:04:24;;;;;;;5.60;2.83;;;22.60;29.50;;;;;;5111991;28;20462;-82
2021/05/16 09:06:56;;;;;;;8.73;2.10;;;22.50;29.20;;;;;;5111557;28;20446;-82
2021/05/16 09:09:28;;;;;;;6.30;2.33;;;22.40;29.40;;;;;;5111364;28;20486;-83
2021/05/16 09:11:59;;;;;;;3.60;2.37;;;21.90;29.70;;;;;;5111622;28;20521;-82
2021/05/16 09:14:46;;;;;;;18.90;2.77;;;21.50;29.10;;;;;;5111462;28;20466;-82
2021/05/16 09:17:23;;;;;;;8.17;3.00;;;21.30;29.60;;;;;;5112183;28;20423;-82
2021/05/16 09:19:51;;;;;;;8.50;2.97;;;20.80;28.60;;;;;;5112067;28;20434;-82
2021/05/16 09:22:39;;;;;;;5.37;3.10;;;20.30;28.70;;;;;;5111426;28;20442;-82
2021/05/16 09:25:15;;;;;;;9.47;3.40;;;20.50;28.50;;;;;;5090386;28;20452;-82
2021/05/16 09:27:44;;;;;;;5.53;3.00;;;20.40;29.00;;;;;;5089908;28;20442;-83
2021/05/16 09:30:32;;;;;;;6.03;2.40;;;21.00;30.40;;;;;;5090787;28;20521;-84
2021/05/16 09:33:01;;;;;;;6.00;2.20;;;21.30;28.70;;;;;;5092214;28;20453;-82
2021/05/16 09:35:47;;;;;;;11.30;3.20;;;20.90;29.90;;;;;;5089812;28;20481;-82
2021/05/16 09:38:15;;;;;;;7.10;2.30;;;21.40;29.00;;;;;;5102261;28;20469;-82
2021/05/16 09:40:44;;;;;;;8.80;2.70;;;21.20;29.20;;;;;;5100365;28;20481;-82
2021/05/16 09:43:16;;;;;;;5.40;2.30;;;21.50;29.30;;;;;;5113173;28;20454;-82
2021/05/16 09:45:54;;;;;;;6.30;2.73;;;21.80;29.90;;;;;;5117803;28;20485;-83
2021/05/16 09:48:36;;;;;;;6.80;2.70;;;21.60;29.00;;;;;;5119648;28;20478;-83
2021/05/16 09:51:21;;;;;;;9.57;2.50;;;21.70;28.30;;;;;;5117642;28;20454;-83
2021/05/16 09:54:00;;;;;;;5.53;2.53;;;21.60;29.10;;;;;;5116541;28;20462;-82
2021/05/16 09:56:29;;;;;;;11.70;3.77;;;21.20;28.10;;;;;;5105595;28;20479;-83
2021/05/16 09:58:57;;;;;;;7.60;4.80;;;21.70;29.60;;;;;;5101382;28;20459;-83
2021/05/16 10:01:25;;;;;;;9.83;3.33;;;21.60;28.70;;;;;;5100049;28;20446;-82
2021/05/16 10:03:52;;;;;;;6.07;2.57;;;20.80;28.90;;;;;;5099240;28;21020;-83
2021/05/16 10:06:19;;;;;;;6.40;2.43;;;20.30;29.00;;;;;;5100030;28;20443;-82
2021/05/16 10:08:48;;;;;;;6.73;2.70;;;20.40;30.70;;;;;;5101226;28;20489;-82
2021/05/16 10:11:16;;;;;;;9.40;2.80;;;21.00;29.40;;;;;;5102876;28;20454;-81
2021/05/16 10:13:48;;;;;;;5.03;2.33;;;21.40;28.90;;;;;;5101393;28;20511;-81
2021/05/16 10:16:20;;;;;;;4.67;2.37;;;22.30;28.10;;;;;;5100900;28;20497;-82
2021/05/16 10:18:49;;;;;;;5.50;2.40;;;22.20;28.00;;;;;;5101236;28;20500;-82
2021/05/16 10:21:16;;;;;;;8.60;2.80;;;22.20;28.00;;;;;;5099988;28;20526;-82
2021/05/16 10:23:43;;;;;;;3.90;2.70;;;22.10;27.20;;;;;;5102296;28;20626;-82
2021/05/16 10:26:26;;;;;;;9.70;2.07;;;21.90;26.60;;;;;;5100030;28;20552;-81
2021/05/16 10:28:56;;;;;;;10.63;3.10;;;21.70;28.30;;;;;;5099678;28;21008;-83
2021/05/16 10:31:55;;;;;;;6.40;2.70;;;21.90;27.70;;;;;;5098717;28;20462;-83
2021/05/16 10:34:42;;;;;;;3.07;2.07;;;21.80;27.70;;;;;;5097123;28;20477;-83
2021/05/16 10:37:12;;;;;;;5.93;2.47;;;21.60;28.60;;;;;;5096491;28;20454;-83
2021/05/16 10:39:52;;;;;;;8.93;2.33;;;21.70;27.80;;;;;;5097790;28;20439;-83
2021/05/16 10:42:21;;;;;;;12.80;2.70;;;21.10;27.80;;;;;;5098465;28;20443;-82
2021/05/16 10:45:01;;;;;;;11.70;2.37;;;21.10;27.70;;;;;;5102412;28;20482;-84
2021/05/16 10:48:10;;;;;;;6.90;2.40;;;21.50;27.60;;;;;;5105716;28;20911;-83
2021/05/16 10:50:51;;;;;;;12.83;3.83;;;21.30;28.10;;;;;;5071015;28;20918;-83
2021/05/16 10:53:29;;;;;;;11.07;3.07;;;21.40;28.10;;;;;;5099094;28;20486;-84
2021/05/16 10:56:10;;;;;;;5.27;2.77;;;21.70;27.00;;;;;;5105934;28;20503;-82
2021/05/16 10:58:48;;;;;;;16.50;4.53;;;21.90;26.40;;;;;;5106861;28;20499;-83
2021/05/16 11:01:17;;;;;;;7.43;1.97;;;22.50;26.40;;;;;;5103553;28;20576;-83
2021/05/16 11:03:45;;;;;;;5.30;2.07;;;22.80;25.30;;;;;;5100629;28;20563;-84
2021/05/16 11:06:12;;;;;;;6.63;2.70;;;22.80;25.60;;;;;;5106507;28;20458;-83
2021/05/16 11:09:13;;;;;;;5.00;2.37;;;22.40;25.40;;;;;;5104291;28;20486;-83
2021/05/16 11:11:54;;;;;;;5.23;2.23;;;23.00;26.10;;;;;;5102277;28;20464;-84
2021/05/16 11:14:24;;;;;;;7.00;2.63;;;23.80;24.00;;;;;;5103641;28;20469;-84
2021/05/16 11:16:54;;;;;;;5.60;2.10;;;23.50;24.20;;;;;;5090659;28;20522;-85
2021/05/16 11:19:22;;;;;;;4.67;2.20;;;23.50;25.00;;;;;;5096065;28;20484;-83
2021/05/16 11:21:49;;;;;;;6.37;2.70;;;22.80;25.00;;;;;;5105579;28;20443;-82
2021/05/16 11:24:16;;;;;;;6.77;2.20;;;23.20;25.90;;;;;;5093455;28;20483;-83
2021/05/16 11:26:43;;;;;;;7.70;1.87;;;23.30;24.80;;;;;;5094093;28;20446;-84
2021/05/16 11:29:10;;;;;;;5.50;2.10;;;22.80;25.00;;;;;;5100248;28;20488;-83
2021/05/16 11:31:38;;;;;;;8.53;2.10;;;23.40;24.70;;;;;;5091134;28;20455;-83
2021/05/16 11:34:06;;;;;;;5.63;2.20;;;23.30;23.90;;;;;;5089832;28;20863;-83
2021/05/16 11:36:38;;;;;;;4.23;2.13;;;23.40;24.30;;;;;;5102831;28;20450;-82
2021/05/16 11:39:08;;;;;;;14.83;2.50;;;23.60;24.30;;;;;;5100838;28;20505;-84
2021/05/16 11:41:36;;;;;;;5.30;2.33;;;23.30;24.70;;;;;;5102866;28;20481;-83
2021/05/16 11:44:04;;;;;;;7.63;2.23;;;23.50;24.40;;;;;;5097402;28;20487;-83
2021/05/16 11:46:33;;;;;;;5.40;2.43;;;23.40;24.70;;;;;;5096670;28;20435;-83
2021/05/16 11:49:04;;;;;;;4.80;2.43;;;23.20;24.60;;;;;;5103838;28;20470;-83
2021/05/16 11:51:32;;;;;;;6.10;2.33;;;23.00;25.30;;;;;;5113834;28;20419;-83
2021/05/16 11:54:00;;;;;;;5.57;2.17;;;22.90;25.10;;;;;;5111351;28;20450;-84
2021/05/16 11:56:28;;;;;;;8.77;2.57;;;22.70;25.30;;;;;;5118397;28;20423;-84
2021/05/16 11:58:55;;;;;;;3.07;2.00;;;23.10;25.20;;;;;;5117234;28;20462;-84
2021/05/16 12:01:23;;;;;;;8.20;2.73;;;23.30;24.60;;;;;;5118124;28;20438;-83
2021/05/16 12:03:59;;;;;;;8.03;2.20;;;23.10;24.80;;;;;;5111219;28;20568;-83
2021/05/16 12:06:27;;;;;;;15.23;2.03;;;22.70;24.40;;;;;;5107846;28;20462;-84
2021/05/16 12:09:17;;;;;;;4.23;2.20;;;22.70;24.50;;;;;;5104910;28;20520;-82
2021/05/16 12:11:45;;;;;;;5.57;2.00;;;23.20;23.90;;;;;;5092750;28;20459;-81
2021/05/16 12:14:14;;;;;;;2.83;2.27;;;23.10;24.50;;;;;;5094036;28;20474;-83
2021/05/16 12:16:49;;;;;;;5.23;2.13;;;23.40;23.20;;;;;;5104008;28;20455;-83
2021/05/16 12:19:19;;;;;;;4.40;2.50;;;23.70;23.20;;;;;;5105200;28;20453;-83
2021/05/16 12:21:50;;;;;;;4.37;2.27;;;23.50;22.90;;;;;;5110674;28;20454;-84
2021/05/16 12:24:19;;;;;;;8.90;2.77;;;23.60;24.20;;;;;;5106696;28;20489;-84
2021/05/16 12:26:46;;;;;;;11.17;3.03;;;23.70;24.40;;;;;;5099742;28;20445;-83
2021/05/16 12:29:14;;;;;;;6.63;2.00;;;23.50;24.70;;;;;;5099366;28;20470;-83
2021/05/16 12:31:41;;;;;;;6.60;2.50;;;23.00;25.40;;;;;;5091403;28;20463;-82
2021/05/16 12:34:08;;;;;;;6.60;3.20;;;22.90;25.50;;;;;;5088019;28;20671;-82
2021/05/16 12:36:47;;;;;;;5.87;2.37;;;22.90;25.90;;;;;;5106564;28;20461;-82
2021/05/16 12:39:13;;;;;;;12.37;3.27;;;22.90;25.30;;;;;;5104534;28;20454;-83
2021/05/16 12:41:39;;;;;;;9.00;2.77;;;23.10;25.50;;;;;;5091453;28;20444;-83
2021/05/16 12:44:12;;;;;;;9.03;2.17;;;23.10;24.90;;;;;;5088407;28;20464;-83
2021/05/16 12:46:43;;;;;;;5.40;2.40;;;23.40;25.10;;;;;;5101082;28;20450;-83
2021/05/16 12:49:12;;;;;;;3.87;2.27;;;23.40;25.00;;;;;;5100422;28;20946;-83
2021/05/16 12:51:38;;;;;;;5.50;2.40;;;23.10;25.50;;;;;;5099524;28;20461;-84
2021/05/16 12:54:23;;;;;;;4.40;2.23;;;22.90;25.20;;;;;;5104224;28;20462;-83